sensor_id;sensor_type;location;lat;lon;timestamp;P1;durP1;ratioP1;P2;durP2;ratioP2
52854;SDS011;38719;51.418;7.286;2023-07-09T00:00:47;7.25;;;4.15;;
52854;SDS011;38719;51.418;7.286;2023-07-09T00:03:15;5.18;;;3.92;;
52854;SDS011;38719;51.418;7.286;2023-07-09T00:05:44;7.07;;;4.47;;
52854;SDS011;38719;51.418;7.286;2023-07-09T00:08:16;16.13;;;4.30;;
52854;SDS011;38719;51.418;7.286;2023-07-09T00:10:53;26.48;;;4.75;;
52854;SDS011;38719;51.418;7.286;2023-07-09T00:13:21;9.23;;;3.90;;
52854;SDS011;38719;51.418;7.286;2023-07-09T00:15:48;24.17;;;4.60;;
52854;SDS011;38719;51.418;7.286;2023-07-09T00:18:17;28.60;;;4.60;;
52854;SDS011;38719;51.418;7.286;2023-07-09T00:20:45;14.23;;;4.60;;
52854;SDS011;38719;51.418;7.286;2023-07-09T00:23:15;7.38;;;3.85;;
52854;SDS011;38719;51.418;7.286;2023-07-09T00:25:46;5.75;;;3.75;;
52854;SDS011;38719;51.418;7.286;2023-07-09T00:28:14;4.90;;;3.70;;
52854;SDS011;38719;51.418;7.286;2023-07-09T00:30:43;8.95;;;4.25;;
52854;SDS011;38719;51.418;7.286;2023-07-09T00:33:12;6.65;;;3.78;;
52854;SDS011;38719;51.418;7.286;2023-07-09T00:35:41;7.60;;;4.13;;
52854;SDS011;38719;51.418;7.286;2023-07-09T00:38:12;8.13;;;3.90;;
52854;SDS011;38719;51.418;7.286;2023-07-09T00:40:47;8.38;;;4.22;;
52854;SDS011;38719;51.418;7.286;2023-07-09T00:43:16;9.05;;;3.95;;
52854;SDS011;38719;51.418;7.286;2023-07-09T00:45:43;10.43;;;4.22;;
52854;SDS011;38719;51.418;7.286;2023-07-09T00:48:12;5.05;;;3.75;;
52854;SDS011;38719;51.418;7.286;2023-07-09T00:50:45;7.85;;;4.30;;
52854;SDS011;38719;51.418;7.286;2023-07-09T00:53:17;6.10;;;4.13;;
52854;SDS011;38719;51.418;7.286;2023-07-09T00:55:52;6.70;;;4.25;;
52854;SDS011;38719;51.418;7.286;2023-07-09T00:58:30;7.88;;;4.70;;
52854;SDS011;38719;51.418;7.286;2023-07-09T01:01:00;8.25;;;4.40;;
52854;SDS011;38719;51.418;7.286;2023-07-09T01:03:33;8.07;;;4.55;;
52854;SDS011;38719;51.418;7.286;2023-07-09T01:06:03;21.02;;;4.38;;
52854;SDS011;38719;51.418;7.286;2023-07-09T01:08:33;6.30;;;4.55;;
52854;SDS011;38719;51.418;7.286;2023-07-09T01:11:04;9.32;;;4.40;;
52854;SDS011;38719;51.418;7.286;2023-07-09T01:13:34;6.82;;;4.50;;
52854;SDS011;38719;51.418;7.286;2023-07-09T01:16:05;4.95;;;3.70;;
52854;SDS011;38719;51.418;7.286;2023-07-09T01:18:34;7.15;;;4.40;;
52854;SDS011;38719;51.418;7.286;2023-07-09T01:21:08;5.40;;;3.90;;
52854;SDS011;38719;51.418;7.286;2023-07-09T01:23:42;12.70;;;4.53;;
52854;SDS011;38719;51.418;7.286;2023-07-09T01:26:10;9.43;;;3.95;;
52854;SDS011;38719;51.418;7.286;2023-07-09T01:28:39;6.13;;;4.05;;
52854;SDS011;38719;51.418;7.286;2023-07-09T01:31:08;7.60;;;4.05;;
52854;SDS011;38719;51.418;7.286;2023-07-09T01:33:35;7.25;;;4.18;;
52854;SDS011;38719;51.418;7.286;2023-07-09T01:36:06;6.82;;;4.53;;
52854;SDS011;38719;51.418;7.286;2023-07-09T01:38:35;7.13;;;4.22;;
52854;SDS011;38719;51.418;7.286;2023-07-09T01:41:03;8.63;;;4.30;;
52854;SDS011;38719;51.418;7.286;2023-07-09T01:43:30;6.85;;;4.60;;
52854;SDS011;38719;51.418;7.286;2023-07-09T01:45:58;8.77;;;4.88;;
52854;SDS011;38719;51.418;7.286;2023-07-09T01:48:26;9.70;;;4.80;;
52854;SDS011;38719;51.418;7.286;2023-07-09T01:50:54;9.98;;;4.07;;
52854;SDS011;38719;51.418;7.286;2023-07-09T01:53:24;8.35;;;4.15;;
52854;SDS011;38719;51.418;7.286;2023-07-09T01:55:53;6.70;;;4.45;;
52854;SDS011;38719;51.418;7.286;2023-07-09T01:58:21;6.93;;;4.10;;
52854;SDS011;38719;51.418;7.286;2023-07-09T02:00:51;7.63;;;4.72;;
52854;SDS011;38719;51.418;7.286;2023-07-09T02:03:18;11.00;;;4.50;;
52854;SDS011;38719;51.418;7.286;2023-07-09T02:05:46;9.65;;;5.03;;
52854;SDS011;38719;51.418;7.286;2023-07-09T02:08:13;9.05;;;4.47;;
52854;SDS011;38719;51.418;7.286;2023-07-09T02:10:44;12.95;;;4.80;;
52854;SDS011;38719;51.418;7.286;2023-07-09T02:13:12;16.23;;;4.70;;
52854;SDS011;38719;51.418;7.286;2023-07-09T02:15:40;5.65;;;3.92;;
52854;SDS011;38719;51.418;7.286;2023-07-09T02:18:09;9.25;;;4.43;;
52854;SDS011;38719;51.418;7.286;2023-07-09T02:20:36;13.15;;;4.80;;
52854;SDS011;38719;51.418;7.286;2023-07-09T02:23:05;8.00;;;4.82;;
52854;SDS011;38719;51.418;7.286;2023-07-09T02:25:33;9.23;;;4.88;;
52854;SDS011;38719;51.418;7.286;2023-07-09T02:28:02;9.13;;;4.43;;
52854;SDS011;38719;51.418;7.286;2023-07-09T02:30:29;8.05;;;4.60;;
52854;SDS011;38719;51.418;7.286;2023-07-09T02:32:57;6.45;;;4.28;;
52854;SDS011;38719;51.418;7.286;2023-07-09T02:35:25;6.60;;;4.22;;
52854;SDS011;38719;51.418;7.286;2023-07-09T02:37:52;15.80;;;5.30;;
52854;SDS011;38719;51.418;7.286;2023-07-09T02:40:20;10.10;;;4.70;;
52854;SDS011;38719;51.418;7.286;2023-07-09T02:42:47;7.75;;;4.75;;
52854;SDS011;38719;51.418;7.286;2023-07-09T02:45:16;9.68;;;4.90;;
52854;SDS011;38719;51.418;7.286;2023-07-09T02:47:44;6.70;;;4.60;;
52854;SDS011;38719;51.418;7.286;2023-07-09T02:50:12;5.90;;;4.40;;
52854;SDS011;38719;51.418;7.286;2023-07-09T02:52:40;8.70;;;4.93;;
52854;SDS011;38719;51.418;7.286;2023-07-09T02:55:08;8.05;;;4.72;;
52854;SDS011;38719;51.418;7.286;2023-07-09T02:57:36;11.98;;;5.13;;
52854;SDS011;38719;51.418;7.286;2023-07-09T03:00:04;7.82;;;4.72;;
52854;SDS011;38719;51.418;7.286;2023-07-09T03:02:34;7.80;;;4.72;;
52854;SDS011;38719;51.418;7.286;2023-07-09T03:05:02;8.38;;;5.40;;
52854;SDS011;38719;51.418;7.286;2023-07-09T03:07:29;9.00;;;4.80;;
52854;SDS011;38719;51.418;7.286;2023-07-09T03:09:57;7.93;;;4.60;;
52854;SDS011;38719;51.418;7.286;2023-07-09T03:12:24;9.45;;;4.90;;
52854;SDS011;38719;51.418;7.286;2023-07-09T03:14:52;8.77;;;4.45;;
52854;SDS011;38719;51.418;7.286;2023-07-09T03:17:19;9.63;;;5.10;;
52854;SDS011;38719;51.418;7.286;2023-07-09T03:19:48;9.60;;;4.82;;
52854;SDS011;38719;51.418;7.286;2023-07-09T03:22:16;6.95;;;4.97;;
52854;SDS011;38719;51.418;7.286;2023-07-09T03:24:43;7.63;;;4.55;;
52854;SDS011;38719;51.418;7.286;2023-07-09T03:27:11;7.82;;;4.80;;
52854;SDS011;38719;51.418;7.286;2023-07-09T03:29:38;11.02;;;5.10;;
52854;SDS011;38719;51.418;7.286;2023-07-09T03:32:06;11.80;;;5.45;;
52854;SDS011;38719;51.418;7.286;2023-07-09T03:34:34;9.88;;;5.00;;
52854;SDS011;38719;51.418;7.286;2023-07-09T03:37:03;9.50;;;5.07;;
52854;SDS011;38719;51.418;7.286;2023-07-09T03:39:31;11.45;;;5.05;;
52854;SDS011;38719;51.418;7.286;2023-07-09T03:41:58;13.32;;;5.32;;
52854;SDS011;38719;51.418;7.286;2023-07-09T03:44:26;10.77;;;5.25;;
52854;SDS011;38719;51.418;7.286;2023-07-09T03:46:53;8.40;;;5.22;;
52854;SDS011;38719;51.418;7.286;2023-07-09T03:49:21;10.82;;;5.57;;
52854;SDS011;38719;51.418;7.286;2023-07-09T03:51:48;8.50;;;5.00;;
52854;SDS011;38719;51.418;7.286;2023-07-09T03:54:17;8.98;;;4.93;;
52854;SDS011;38719;51.418;7.286;2023-07-09T03:56:45;8.30;;;5.65;;
52854;SDS011;38719;51.418;7.286;2023-07-09T03:59:12;10.43;;;5.45;;
52854;SDS011;38719;51.418;7.286;2023-07-09T04:01:40;9.55;;;6.45;;
52854;SDS011;38719;51.418;7.286;2023-07-09T04:04:12;12.73;;;6.38;;
52854;SDS011;38719;51.418;7.286;2023-07-09T04:06:40;9.88;;;5.45;;
52854;SDS011;38719;51.418;7.286;2023-07-09T04:09:07;8.32;;;4.70;;
52854;SDS011;38719;51.418;7.286;2023-07-09T04:11:36;12.93;;;5.18;;
52854;SDS011;38719;51.418;7.286;2023-07-09T04:14:04;9.63;;;5.05;;
52854;SDS011;38719;51.418;7.286;2023-07-09T04:16:33;11.07;;;4.90;;
52854;SDS011;38719;51.418;7.286;2023-07-09T04:19:01;10.32;;;5.57;;
52854;SDS011;38719;51.418;7.286;2023-07-09T04:21:29;8.68;;;5.28;;
52854;SDS011;38719;51.418;7.286;2023-07-09T04:23:56;14.13;;;4.50;;
52854;SDS011;38719;51.418;7.286;2023-07-09T04:26:24;9.90;;;5.30;;
52854;SDS011;38719;51.418;7.286;2023-07-09T04:28:53;13.73;;;5.20;;
52854;SDS011;38719;51.418;7.286;2023-07-09T04:31:20;10.07;;;5.13;;
52854;SDS011;38719;51.418;7.286;2023-07-09T04:33:48;9.43;;;5.18;;
52854;SDS011;38719;51.418;7.286;2023-07-09T04:36:15;8.38;;;4.63;;
52854;SDS011;38719;51.418;7.286;2023-07-09T04:38:43;7.63;;;4.85;;
52854;SDS011;38719;51.418;7.286;2023-07-09T04:41:10;9.93;;;5.30;;
52854;SDS011;38719;51.418;7.286;2023-07-09T04:43:38;8.77;;;4.70;;
52854;SDS011;38719;51.418;7.286;2023-07-09T04:46:07;9.60;;;5.05;;
52854;SDS011;38719;51.418;7.286;2023-07-09T04:48:34;9.23;;;5.03;;
52854;SDS011;38719;51.418;7.286;2023-07-09T04:51:02;9.18;;;5.13;;
52854;SDS011;38719;51.418;7.286;2023-07-09T04:53:30;6.95;;;4.95;;
52854;SDS011;38719;51.418;7.286;2023-07-09T04:55:57;10.07;;;5.30;;
52854;SDS011;38719;51.418;7.286;2023-07-09T04:58:25;9.52;;;5.45;;
52854;SDS011;38719;51.418;7.286;2023-07-09T05:00:56;11.30;;;5.57;;
52854;SDS011;38719;51.418;7.286;2023-07-09T05:03:25;8.05;;;5.30;;
52854;SDS011;38719;51.418;7.286;2023-07-09T05:05:53;9.93;;;6.18;;
52854;SDS011;38719;51.418;7.286;2023-07-09T05:08:21;9.57;;;5.10;;
52854;SDS011;38719;51.418;7.286;2023-07-09T05:10:50;9.95;;;5.32;;
52854;SDS011;38719;51.418;7.286;2023-07-09T05:13:19;15.60;;;5.57;;
52854;SDS011;38719;51.418;7.286;2023-07-09T05:15:47;11.18;;;5.35;;
52854;SDS011;38719;51.418;7.286;2023-07-09T05:18:17;8.55;;;5.30;;
52854;SDS011;38719;51.418;7.286;2023-07-09T05:20:47;12.65;;;6.22;;
52854;SDS011;38719;51.418;7.286;2023-07-09T05:23:14;10.82;;;5.07;;
52854;SDS011;38719;51.418;7.286;2023-07-09T05:25:42;8.30;;;4.78;;
52854;SDS011;38719;51.418;7.286;2023-07-09T05:28:10;9.18;;;4.90;;
52854;SDS011;38719;51.418;7.286;2023-07-09T05:30:40;8.23;;;4.88;;
52854;SDS011;38719;51.418;7.286;2023-07-09T05:33:08;13.10;;;6.22;;
52854;SDS011;38719;51.418;7.286;2023-07-09T05:35:36;7.75;;;4.75;;
52854;SDS011;38719;51.418;7.286;2023-07-09T05:38:05;10.65;;;5.07;;
52854;SDS011;38719;51.418;7.286;2023-07-09T05:40:32;8.65;;;4.95;;
52854;SDS011;38719;51.418;7.286;2023-07-09T05:43:00;10.40;;;4.97;;
52854;SDS011;38719;51.418;7.286;2023-07-09T05:45:27;8.68;;;5.55;;
52854;SDS011;38719;51.418;7.286;2023-07-09T05:47:55;8.48;;;4.70;;
52854;SDS011;38719;51.418;7.286;2023-07-09T05:50:22;13.18;;;5.28;;
52854;SDS011;38719;51.418;7.286;2023-07-09T05:52:50;7.55;;;4.63;;
52854;SDS011;38719;51.418;7.286;2023-07-09T05:55:19;12.00;;;5.22;;
52854;SDS011;38719;51.418;7.286;2023-07-09T05:57:46;14.45;;;5.20;;
52854;SDS011;38719;51.418;7.286;2023-07-09T06:00:14;7.10;;;4.70;;
52854;SDS011;38719;51.418;7.286;2023-07-09T06:02:42;9.80;;;5.20;;
52854;SDS011;38719;51.418;7.286;2023-07-09T06:05:10;8.40;;;4.60;;
52854;SDS011;38719;51.418;7.286;2023-07-09T06:07:38;10.48;;;4.63;;
52854;SDS011;38719;51.418;7.286;2023-07-09T06:10:06;8.75;;;5.53;;
52854;SDS011;38719;51.418;7.286;2023-07-09T06:12:36;10.25;;;5.40;;
52854;SDS011;38719;51.418;7.286;2023-07-09T06:15:05;8.27;;;4.68;;
52854;SDS011;38719;51.418;7.286;2023-07-09T06:17:33;5.72;;;4.00;;
52854;SDS011;38719;51.418;7.286;2023-07-09T06:20:01;8.45;;;4.97;;
52854;SDS011;38719;51.418;7.286;2023-07-09T06:22:28;9.05;;;4.68;;
52854;SDS011;38719;51.418;7.286;2023-07-09T06:24:56;10.32;;;4.93;;
52854;SDS011;38719;51.418;7.286;2023-07-09T06:27:23;8.65;;;4.70;;
52854;SDS011;38719;51.418;7.286;2023-07-09T06:29:52;6.03;;;4.53;;
52854;SDS011;38719;51.418;7.286;2023-07-09T06:32:20;10.18;;;5.30;;
52854;SDS011;38719;51.418;7.286;2023-07-09T06:34:47;9.60;;;4.90;;
52854;SDS011;38719;51.418;7.286;2023-07-09T06:37:15;8.25;;;4.80;;
52854;SDS011;38719;51.418;7.286;2023-07-09T06:39:42;5.88;;;4.30;;
52854;SDS011;38719;51.418;7.286;2023-07-09T06:42:10;8.75;;;4.75;;
52854;SDS011;38719;51.418;7.286;2023-07-09T06:44:37;9.27;;;4.82;;
52854;SDS011;38719;51.418;7.286;2023-07-09T06:47:07;9.40;;;4.78;;
52854;SDS011;38719;51.418;7.286;2023-07-09T06:49:34;8.75;;;5.07;;
52854;SDS011;38719;51.418;7.286;2023-07-09T06:52:02;12.25;;;5.03;;
52854;SDS011;38719;51.418;7.286;2023-07-09T06:54:30;9.20;;;4.85;;
52854;SDS011;38719;51.418;7.286;2023-07-09T06:56:57;7.38;;;5.10;;
52854;SDS011;38719;51.418;7.286;2023-07-09T06:59:25;9.52;;;4.95;;
52854;SDS011;38719;51.418;7.286;2023-07-09T07:01:52;10.25;;;4.90;;
52854;SDS011;38719;51.418;7.286;2023-07-09T07:04:21;8.02;;;4.72;;
52854;SDS011;38719;51.418;7.286;2023-07-09T07:06:49;9.27;;;5.03;;
52854;SDS011;38719;51.418;7.286;2023-07-09T07:09:16;9.77;;;5.15;;
52854;SDS011;38719;51.418;7.286;2023-07-09T07:11:44;7.50;;;5.03;;
52854;SDS011;38719;51.418;7.286;2023-07-09T07:14:12;8.07;;;4.78;;
52854;SDS011;38719;51.418;7.286;2023-07-09T07:16:39;8.65;;;5.03;;
52854;SDS011;38719;51.418;7.286;2023-07-09T07:19:07;7.97;;;4.75;;
52854;SDS011;38719;51.418;7.286;2023-07-09T07:21:37;12.13;;;5.35;;
52854;SDS011;38719;51.418;7.286;2023-07-09T07:24:04;12.93;;;5.63;;
52854;SDS011;38719;51.418;7.286;2023-07-09T07:26:32;9.25;;;5.75;;
52854;SDS011;38719;51.418;7.286;2023-07-09T07:29:00;8.68;;;5.15;;
52854;SDS011;38719;51.418;7.286;2023-07-09T07:31:28;10.60;;;4.93;;
52854;SDS011;38719;51.418;7.286;2023-07-09T07:33:56;11.45;;;5.75;;
52854;SDS011;38719;51.418;7.286;2023-07-09T07:36:23;8.30;;;5.40;;
52854;SDS011;38719;51.418;7.286;2023-07-09T07:38:58;16.88;;;5.85;;
52854;SDS011;38719;51.418;7.286;2023-07-09T07:41:25;6.65;;;4.60;;
52854;SDS011;38719;51.418;7.286;2023-07-09T07:43:53;19.23;;;5.90;;
52854;SDS011;38719;51.418;7.286;2023-07-09T07:46:20;8.43;;;4.70;;
52854;SDS011;38719;51.418;7.286;2023-07-09T07:48:48;10.20;;;5.05;;
52854;SDS011;38719;51.418;7.286;2023-07-09T07:51:15;12.25;;;4.97;;
52854;SDS011;38719;51.418;7.286;2023-07-09T07:53:43;8.90;;;4.88;;
52854;SDS011;38719;51.418;7.286;2023-07-09T07:56:12;10.80;;;5.50;;
52854;SDS011;38719;51.418;7.286;2023-07-09T07:58:39;9.55;;;5.13;;
52854;SDS011;38719;51.418;7.286;2023-07-09T08:01:07;9.82;;;5.07;;
52854;SDS011;38719;51.418;7.286;2023-07-09T08:03:34;7.82;;;5.35;;
52854;SDS011;38719;51.418;7.286;2023-07-09T08:06:02;7.68;;;4.88;;
52854;SDS011;38719;51.418;7.286;2023-07-09T08:08:30;10.43;;;5.20;;
52854;SDS011;38719;51.418;7.286;2023-07-09T08:11:01;10.52;;;5.10;;
52854;SDS011;38719;51.418;7.286;2023-07-09T08:13:32;9.40;;;5.85;;
52854;SDS011;38719;51.418;7.286;2023-07-09T08:16:00;11.95;;;5.22;;
52854;SDS011;38719;51.418;7.286;2023-07-09T08:18:29;10.90;;;4.97;;
52854;SDS011;38719;51.418;7.286;2023-07-09T08:20:57;11.00;;;5.18;;
52854;SDS011;38719;51.418;7.286;2023-07-09T08:23:25;8.85;;;5.13;;
52854;SDS011;38719;51.418;7.286;2023-07-09T08:25:53;9.13;;;5.15;;
52854;SDS011;38719;51.418;7.286;2023-07-09T08:28:20;9.82;;;5.25;;
52854;SDS011;38719;51.418;7.286;2023-07-09T08:30:51;6.57;;;5.00;;
52854;SDS011;38719;51.418;7.286;2023-07-09T08:33:19;9.52;;;5.32;;
52854;SDS011;38719;51.418;7.286;2023-07-09T08:35:48;7.78;;;5.10;;
52854;SDS011;38719;51.418;7.286;2023-07-09T08:38:16;6.32;;;4.40;;
52854;SDS011;38719;51.418;7.286;2023-07-09T08:40:49;10.80;;;4.93;;
52854;SDS011;38719;51.418;7.286;2023-07-09T08:43:23;10.30;;;5.13;;
52854;SDS011;38719;51.418;7.286;2023-07-09T08:46:03;9.30;;;5.53;;
52854;SDS011;38719;51.418;7.286;2023-07-09T08:48:38;7.82;;;4.93;;
52854;SDS011;38719;51.418;7.286;2023-07-09T08:51:11;9.43;;;5.45;;
52854;SDS011;38719;51.418;7.286;2023-07-09T08:53:45;8.18;;;5.90;;
52854;SDS011;38719;51.418;7.286;2023-07-09T08:56:24;8.95;;;5.05;;
52854;SDS011;38719;51.418;7.286;2023-07-09T08:58:53;9.77;;;5.50;;
52854;SDS011;38719;51.418;7.286;2023-07-09T09:01:26;10.00;;;5.35;;
52854;SDS011;38719;51.418;7.286;2023-07-09T09:03:58;6.88;;;4.97;;
52854;SDS011;38719;51.418;7.286;2023-07-09T09:06:30;10.85;;;4.97;;
52854;SDS011;38719;51.418;7.286;2023-07-09T09:09:01;11.38;;;5.50;;
52854;SDS011;38719;51.418;7.286;2023-07-09T09:11:41;10.15;;;4.95;;
52854;SDS011;38719;51.418;7.286;2023-07-09T09:14:18;10.00;;;4.85;;
52854;SDS011;38719;51.418;7.286;2023-07-09T09:16:56;9.20;;;5.05;;
52854;SDS011;38719;51.418;7.286;2023-07-09T09:19:26;9.30;;;4.78;;
52854;SDS011;38719;51.418;7.286;2023-07-09T09:21:56;9.13;;;4.80;;
52854;SDS011;38719;51.418;7.286;2023-07-09T09:24:31;8.52;;;5.20;;
52854;SDS011;38719;51.418;7.286;2023-07-09T09:27:03;13.70;;;5.20;;
52854;SDS011;38719;51.418;7.286;2023-07-09T09:29:31;7.68;;;5.20;;
52854;SDS011;38719;51.418;7.286;2023-07-09T09:32:00;9.43;;;4.85;;
52854;SDS011;38719;51.418;7.286;2023-07-09T09:34:45;6.90;;;4.70;;
52854;SDS011;38719;51.418;7.286;2023-07-09T09:37:14;13.02;;;5.55;;
52854;SDS011;38719;51.418;7.286;2023-07-09T09:39:51;7.10;;;4.82;;
52854;SDS011;38719;51.418;7.286;2023-07-09T09:42:38;8.45;;;5.00;;
52854;SDS011;38719;51.418;7.286;2023-07-09T09:45:07;8.77;;;5.72;;
52854;SDS011;38719;51.418;7.286;2023-07-09T09:47:42;12.95;;;4.88;;
52854;SDS011;38719;51.418;7.286;2023-07-09T09:50:12;7.35;;;4.65;;
52854;SDS011;38719;51.418;7.286;2023-07-09T09:52:40;10.10;;;4.63;;
52854;SDS011;38719;51.418;7.286;2023-07-09T09:55:10;9.30;;;5.32;;
52854;SDS011;38719;51.418;7.286;2023-07-09T09:57:38;9.32;;;4.50;;
52854;SDS011;38719;51.418;7.286;2023-07-09T10:00:12;6.32;;;4.40;;
52854;SDS011;38719;51.418;7.286;2023-07-09T10:02:44;11.55;;;5.20;;
52854;SDS011;38719;51.418;7.286;2023-07-09T10:05:12;6.45;;;3.72;;
52854;SDS011;38719;51.418;7.286;2023-07-09T10:07:43;7.25;;;4.40;;
52854;SDS011;38719;51.418;7.286;2023-07-09T10:10:17;9.60;;;4.38;;
52854;SDS011;38719;51.418;7.286;2023-07-09T10:12:50;6.70;;;4.32;;
52854;SDS011;38719;51.418;7.286;2023-07-09T10:15:23;10.18;;;3.97;;
52854;SDS011;38719;51.418;7.286;2023-07-09T10:18:00;5.68;;;3.95;;
52854;SDS011;38719;51.418;7.286;2023-07-09T10:20:32;7.05;;;4.18;;
52854;SDS011;38719;51.418;7.286;2023-07-09T10:23:09;6.80;;;4.35;;
52854;SDS011;38719;51.418;7.286;2023-07-09T10:25:46;6.53;;;4.35;;
52854;SDS011;38719;51.418;7.286;2023-07-09T10:28:28;5.65;;;4.07;;
52854;SDS011;38719;51.418;7.286;2023-07-09T10:31:10;11.18;;;4.45;;
52854;SDS011;38719;51.418;7.286;2023-07-09T10:33:49;6.95;;;4.38;;
52854;SDS011;38719;51.418;7.286;2023-07-09T10:36:29;9.65;;;4.03;;
52854;SDS011;38719;51.418;7.286;2023-07-09T10:39:09;6.75;;;3.60;;
52854;SDS011;38719;51.418;7.286;2023-07-09T10:41:41;4.68;;;3.33;;
52854;SDS011;38719;51.418;7.286;2023-07-09T10:44:11;6.97;;;3.67;;
52854;SDS011;38719;51.418;7.286;2023-07-09T10:46:46;6.90;;;3.40;;
52854;SDS011;38719;51.418;7.286;2023-07-09T10:49:17;5.95;;;3.80;;
52854;SDS011;38719;51.418;7.286;2023-07-09T10:51:46;7.28;;;3.60;;
52854;SDS011;38719;51.418;7.286;2023-07-09T10:54:19;7.28;;;3.50;;
52854;SDS011;38719;51.418;7.286;2023-07-09T10:56:53;10.27;;;3.60;;
52854;SDS011;38719;51.418;7.286;2023-07-09T10:59:26;8.60;;;3.20;;
52854;SDS011;38719;51.418;7.286;2023-07-09T11:01:58;26.20;;;4.30;;
52854;SDS011;38719;51.418;7.286;2023-07-09T11:04:43;29.40;;;3.85;;
52854;SDS011;38719;51.418;7.286;2023-07-09T11:07:14;12.88;;;3.75;;
52854;SDS011;38719;51.418;7.286;2023-07-09T11:09:47;13.27;;;3.80;;
52854;SDS011;38719;51.418;7.286;2023-07-09T11:12:24;7.30;;;3.63;;
52854;SDS011;38719;51.418;7.286;2023-07-09T11:14:58;4.80;;;3.75;;
52854;SDS011;38719;51.418;7.286;2023-07-09T11:17:30;8.20;;;4.05;;
52854;SDS011;38719;51.418;7.286;2023-07-09T11:20:06;5.28;;;3.53;;
52854;SDS011;38719;51.418;7.286;2023-07-09T11:22:36;6.03;;;3.72;;
52854;SDS011;38719;51.418;7.286;2023-07-09T11:25:06;6.68;;;3.70;;
52854;SDS011;38719;51.418;7.286;2023-07-09T11:27:44;6.63;;;3.45;;
52854;SDS011;38719;51.418;7.286;2023-07-09T11:30:19;7.38;;;3.70;;
52854;SDS011;38719;51.418;7.286;2023-07-09T11:32:52;10.88;;;3.60;;
52854;SDS011;38719;51.418;7.286;2023-07-09T11:35:46;9.00;;;3.60;;
52854;SDS011;38719;51.418;7.286;2023-07-09T11:38:17;4.50;;;3.70;;
52854;SDS011;38719;51.418;7.286;2023-07-09T11:40:46;11.07;;;4.65;;
52854;SDS011;38719;51.418;7.286;2023-07-09T11:43:28;3.92;;;3.13;;
52854;SDS011;38719;51.418;7.286;2023-07-09T11:46:00;13.93;;;4.30;;
52854;SDS011;38719;51.418;7.286;2023-07-09T11:48:34;19.20;;;4.25;;
52854;SDS011;38719;51.418;7.286;2023-07-09T11:51:05;8.20;;;3.72;;
52854;SDS011;38719;51.418;7.286;2023-07-09T11:53:40;7.38;;;3.80;;
52854;SDS011;38719;51.418;7.286;2023-07-09T11:58:48;6.85;;;3.70;;
52854;SDS011;38719;51.418;7.286;2023-07-09T12:01:16;5.72;;;3.70;;
52854;SDS011;38719;51.418;7.286;2023-07-09T12:03:46;6.93;;;3.67;;
52854;SDS011;38719;51.418;7.286;2023-07-09T12:06:18;8.05;;;3.60;;
52854;SDS011;38719;51.418;7.286;2023-07-09T12:08:49;4.90;;;3.53;;
52854;SDS011;38719;51.418;7.286;2023-07-09T12:11:22;5.43;;;3.45;;
52854;SDS011;38719;51.418;7.286;2023-07-09T12:13:51;4.60;;;3.63;;
52854;SDS011;38719;51.418;7.286;2023-07-09T12:16:23;6.95;;;3.75;;
52854;SDS011;38719;51.418;7.286;2023-07-09T12:18:52;11.80;;;4.13;;
52854;SDS011;38719;51.418;7.286;2023-07-09T12:21:23;11.57;;;3.75;;
52854;SDS011;38719;51.418;7.286;2023-07-09T12:23:52;5.25;;;3.53;;
52854;SDS011;38719;51.418;7.286;2023-07-09T12:26:21;9.50;;;3.70;;
52854;SDS011;38719;51.418;7.286;2023-07-09T12:28:49;6.20;;;3.97;;
52854;SDS011;38719;51.418;7.286;2023-07-09T12:31:17;5.95;;;3.70;;
52854;SDS011;38719;51.418;7.286;2023-07-09T12:33:48;7.47;;;3.40;;
52854;SDS011;38719;51.418;7.286;2023-07-09T12:36:17;5.55;;;3.95;;
52854;SDS011;38719;51.418;7.286;2023-07-09T12:38:48;7.55;;;3.75;;
52854;SDS011;38719;51.418;7.286;2023-07-09T12:41:19;9.38;;;4.18;;
52854;SDS011;38719;51.418;7.286;2023-07-09T12:43:49;8.10;;;3.67;;
52854;SDS011;38719;51.418;7.286;2023-07-09T12:46:19;8.50;;;3.67;;
52854;SDS011;38719;51.418;7.286;2023-07-09T12:48:48;7.05;;;3.55;;
52854;SDS011;38719;51.418;7.286;2023-07-09T12:51:21;6.40;;;3.58;;
52854;SDS011;38719;51.418;7.286;2023-07-09T12:56:28;9.95;;;4.07;;
52854;SDS011;38719;51.418;7.286;2023-07-09T12:59:04;4.68;;;3.10;;
52854;SDS011;38719;51.418;7.286;2023-07-09T13:01:47;5.63;;;3.55;;
52854;SDS011;38719;51.418;7.286;2023-07-09T13:04:16;5.88;;;4.00;;
52854;SDS011;38719;51.418;7.286;2023-07-09T13:06:44;7.22;;;3.83;;
52854;SDS011;38719;51.418;7.286;2023-07-09T13:09:17;5.18;;;3.53;;
52854;SDS011;38719;51.418;7.286;2023-07-09T13:11:48;6.57;;;4.10;;
52854;SDS011;38719;51.418;7.286;2023-07-09T13:14:17;7.88;;;3.60;;
52854;SDS011;38719;51.418;7.286;2023-07-09T13:16:47;10.27;;;3.58;;
52854;SDS011;38719;51.418;7.286;2023-07-09T13:19:15;12.70;;;3.85;;
52854;SDS011;38719;51.418;7.286;2023-07-09T13:21:42;7.43;;;3.60;;
52854;SDS011;38719;51.418;7.286;2023-07-09T13:24:12;7.57;;;4.07;;
52854;SDS011;38719;51.418;7.286;2023-07-09T13:26:44;9.77;;;4.18;;
52854;SDS011;38719;51.418;7.286;2023-07-09T13:29:13;17.55;;;4.10;;
52854;SDS011;38719;51.418;7.286;2023-07-09T13:31:41;6.55;;;4.10;;
52854;SDS011;38719;51.418;7.286;2023-07-09T13:34:13;8.35;;;3.90;;
52854;SDS011;38719;51.418;7.286;2023-07-09T13:36:46;9.18;;;4.00;;
52854;SDS011;38719;51.418;7.286;2023-07-09T13:39:14;5.22;;;3.50;;
52854;SDS011;38719;51.418;7.286;2023-07-09T13:41:44;7.15;;;3.78;;
52854;SDS011;38719;51.418;7.286;2023-07-09T13:44:14;6.72;;;3.80;;
52854;SDS011;38719;51.418;7.286;2023-07-09T13:46:43;7.38;;;3.60;;
52854;SDS011;38719;51.418;7.286;2023-07-09T13:49:12;9.82;;;3.75;;
52854;SDS011;38719;51.418;7.286;2023-07-09T13:51:41;5.07;;;3.45;;
52854;SDS011;38719;51.418;7.286;2023-07-09T13:54:13;7.97;;;3.85;;
52854;SDS011;38719;51.418;7.286;2023-07-09T13:56:44;6.38;;;3.70;;
52854;SDS011;38719;51.418;7.286;2023-07-09T13:59:14;12.88;;;4.15;;
52854;SDS011;38719;51.418;7.286;2023-07-09T14:01:42;17.55;;;3.75;;
52854;SDS011;38719;51.418;7.286;2023-07-09T14:04:11;21.42;;;4.35;;
52854;SDS011;38719;51.418;7.286;2023-07-09T14:06:40;10.85;;;4.07;;
52854;SDS011;38719;51.418;7.286;2023-07-09T14:09:08;40.67;;;4.63;;
52854;SDS011;38719;51.418;7.286;2023-07-09T14:11:36;6.97;;;4.10;;
52854;SDS011;38719;51.418;7.286;2023-07-09T14:14:15;8.20;;;4.40;;
52854;SDS011;38719;51.418;7.286;2023-07-09T14:16:45;7.80;;;4.20;;
52854;SDS011;38719;51.418;7.286;2023-07-09T14:19:14;5.53;;;3.53;;
52854;SDS011;38719;51.418;7.286;2023-07-09T14:21:44;8.68;;;4.03;;
52854;SDS011;38719;51.418;7.286;2023-07-09T14:24:18;10.82;;;4.10;;
52854;SDS011;38719;51.418;7.286;2023-07-09T14:26:47;9.32;;;3.75;;
52854;SDS011;38719;51.418;7.286;2023-07-09T14:29:17;8.10;;;4.10;;
52854;SDS011;38719;51.418;7.286;2023-07-09T14:31:45;5.57;;;4.00;;
52854;SDS011;38719;51.418;7.286;2023-07-09T14:34:16;7.30;;;4.10;;
52854;SDS011;38719;51.418;7.286;2023-07-09T14:36:47;7.40;;;4.00;;
52854;SDS011;38719;51.418;7.286;2023-07-09T14:39:15;9.68;;;4.32;;
52854;SDS011;38719;51.418;7.286;2023-07-09T14:41:43;9.95;;;4.10;;
52854;SDS011;38719;51.418;7.286;2023-07-09T14:44:15;6.60;;;4.40;;
52854;SDS011;38719;51.418;7.286;2023-07-09T14:46:49;9.35;;;4.07;;
52854;SDS011;38719;51.418;7.286;2023-07-09T14:49:18;7.30;;;4.20;;
52854;SDS011;38719;51.418;7.286;2023-07-09T14:51:46;7.15;;;4.13;;
52854;SDS011;38719;51.418;7.286;2023-07-09T14:54:18;9.32;;;4.45;;
52854;SDS011;38719;51.418;7.286;2023-07-09T14:56:49;29.75;;;6.38;;
52854;SDS011;38719;51.418;7.286;2023-07-09T14:59:18;15.00;;;4.95;;
52854;SDS011;38719;51.418;7.286;2023-07-09T15:01:47;100.35;;;7.53;;
52854;SDS011;38719;51.418;7.286;2023-07-09T15:04:28;13.02;;;4.40;;